Time;durP1;ratioP1;P1;durP2;ratioP2;P2;SDS_P1;SDS_P2;PMS_P1;PMS_P2;Temp;Humidity;BMP_temperature;BMP_pressure;BME280_temperature;BME280_humidity;BME280_pressure;Samples;Min_cycle;Max_cycle;Signal;HPM_P1;HPM_P2
2021/04/18 00:02:21;;;;;;;20.47;8.77;;;8.90;99.90;;;;;;4973362;28;20189;-79
2021/04/18 00:04:46;;;;;;;21.03;7.77;;;8.90;99.90;;;;;;4976430;28;20292;-79
2021/04/18 00:07:13;;;;;;;16.47;7.20;;;8.80;99.90;;;;;;4972787;28;20697;-79
2021/04/18 00:09:39;;;;;;;17.80;7.53;;;8.60;99.90;;;;;;4988473;28;20648;-79
2021/04/18 00:12:05;;;;;;;18.73;7.93;;;8.50;99.90;;;;;;4974269;28;20179;-79
2021/04/18 00:14:31;;;;;;;18.63;7.63;;;8.50;99.90;;;;;;4971351;28;20189;-79
2021/04/18 00:16:57;;;;;;;16.17;8.20;;;8.50;99.90;;;;;;4973313;28;20548;-78
2021/04/18 00:19:22;;;;;;;19.00;8.67;;;8.60;99.90;;;;;;4973221;28;20667;-79
2021/04/18 00:21:48;;;;;;;17.93;8.40;;;8.60;99.90;;;;;;4987857;28;20605;-79
2021/04/18 00:24:15;;;;;;;22.53;9.07;;;8.70;99.90;;;;;;4972820;28;20551;-78
2021/04/18 00:26:40;;;;;;;20.80;8.83;;;8.80;99.90;;;;;;4972135;28;20275;-78
2021/04/18 00:29:06;;;;;;;22.43;8.80;;;8.70;99.90;;;;;;4973570;28;20263;-79
2021/04/18 00:31:32;;;;;;;17.93;8.90;;;8.60;99.90;;;;;;4988013;28;20294;-79
2021/04/18 00:33:58;;;;;;;21.70;9.17;;;8.60;99.90;;;;;;4969809;28;20228;-78
2021/04/18 00:36:23;;;;;;;27.70;10.60;;;8.60;99.90;;;;;;4973796;28;20769;-79
2021/04/18 00:38:49;;;;;;;23.57;9.13;;;8.50;99.90;;;;;;4972979;28;20213;-79
2021/04/18 00:41:15;;;;;;;20.20;9.40;;;8.50;99.90;;;;;;4973252;28;20183;-79
2021/04/18 00:43:42;;;;;;;18.17;8.47;;;8.50;99.90;;;;;;4972840;28;20188;-78
2021/04/18 00:46:10;;;;;;;20.97;8.50;;;8.60;99.90;;;;;;4971603;28;20183;-78
2021/04/18 00:48:43;;;;;;;19.10;9.07;;;8.60;99.90;;;;;;4973333;28;20611;-80
2021/04/18 00:51:10;;;;;;;23.00;9.73;;;8.60;99.90;;;;;;4973565;28;20194;-79
2021/04/18 00:53:36;;;;;;;19.27;9.17;;;8.60;99.90;;;;;;4973351;28;20174;-79
2021/04/18 00:56:03;;;;;;;19.37;9.83;;;8.60;99.90;;;;;;4973374;28;20185;-79
2021/04/18 00:58:31;;;;;;;23.97;10.23;;;8.60;99.90;;;;;;4974483;28;20761;-79
2021/04/18 01:00:56;;;;;;;20.63;9.63;;;8.60;99.90;;;;;;4973421;28;20185;-78
2021/04/18 01:03:22;;;;;;;23.20;9.47;;;8.60;99.90;;;;;;5002485;28;20197;-79
2021/04/18 01:05:48;;;;;;;22.90;9.93;;;8.50;99.90;;;;;;5003643;28;20215;-79
2021/04/18 01:08:14;;;;;;;19.17;9.37;;;8.40;99.90;;;;;;4987460;28;20208;-80
2021/04/18 01:10:40;;;;;;;19.50;9.93;;;8.30;99.90;;;;;;4973757;28;20192;-79
2021/04/18 01:13:07;;;;;;;25.77;11.10;;;8.30;99.90;;;;;;5003675;28;20690;-78
2021/04/18 01:15:32;;;;;;;22.50;9.93;;;8.20;99.90;;;;;;4986262;28;20180;-79
2021/04/18 01:17:58;;;;;;;21.73;10.63;;;8.20;99.90;;;;;;4976138;28;21022;-79
2021/04/18 01:20:25;;;;;;;22.20;10.33;;;8.20;99.90;;;;;;4992140;28;20200;-79
2021/04/18 01:23:05;;;;;;;23.63;11.10;;;8.20;99.90;;;;;;4991090;28;20188;-79
2021/04/18 01:26:05;;;;;;;22.83;10.53;;;8.10;99.90;;;;;;4975398;28;20220;-79
2021/04/18 01:28:35;;;;;;;20.80;10.83;;;8.00;99.90;;;;;;4975963;28;20201;-79
2021/04/18 01:31:04;;;;;;;22.33;10.60;;;8.00;99.90;;;;;;4975797;28;20689;-79
2021/04/18 01:33:32;;;;;;;18.93;10.40;;;8.10;99.90;;;;;;4974156;28;20704;-80
2021/04/18 01:35:59;;;;;;;22.70;10.83;;;8.10;99.90;;;;;;4977289;28;20181;-80
2021/04/18 01:38:24;;;;;;;20.23;10.40;;;8.10;99.90;;;;;;4973151;28;20237;-80
2021/04/18 01:40:50;;;;;;;25.97;11.50;;;8.10;99.90;;;;;;4976351;28;20225;-79
2021/04/18 01:43:18;;;;;;;25.20;11.50;;;8.10;99.90;;;;;;4977339;28;20196;-79
2021/04/18 01:45:44;;;;;;;25.23;11.40;;;8.20;99.90;;;;;;4975504;28;20192;-78
2021/04/18 01:48:11;;;;;;;22.93;11.77;;;8.20;99.90;;;;;;4990397;28;20200;-78
2021/04/18 01:50:47;;;;;;;27.77;11.57;;;8.10;99.90;;;;;;4974879;28;20234;-78
2021/04/18 01:53:14;;;;;;;25.00;11.83;;;8.10;99.90;;;;;;5008033;28;20211;-78
2021/04/18 01:55:40;;;;;;;26.33;11.77;;;8.10;99.90;;;;;;4976142;28;20215;-78
2021/04/18 01:58:08;;;;;;;26.17;12.23;;;8.10;99.90;;;;;;5005619;28;20194;-78
2021/04/18 02:00:45;;;;;;;22.90;12.57;;;8.10;99.90;;;;;;4990777;28;20175;-78
2021/04/18 02:03:12;;;;;;;23.50;12.40;;;8.10;99.90;;;;;;4987851;28;20684;-78
2021/04/18 02:05:41;;;;;;;21.43;11.93;;;8.10;99.90;;;;;;4973986;28;20231;-78
2021/04/18 02:08:17;;;;;;;24.60;11.97;;;7.90;99.90;;;;;;4975094;28;20215;-78
2021/04/18 02:10:44;;;;;;;20.10;11.17;;;7.80;99.90;;;;;;4990407;28;20179;-78
2021/04/18 02:13:13;;;;;;;24.43;11.23;;;7.70;99.90;;;;;;4976713;28;20262;-78
2021/04/18 02:16:00;;;;;;;24.03;11.30;;;7.50;99.90;;;;;;5005616;28;20210;-78
2021/04/18 02:18:28;;;;;;;23.47;12.33;;;7.40;99.90;;;;;;5006457;28;20288;-78
2021/04/18 02:20:54;;;;;;;23.07;11.93;;;7.40;99.90;;;;;;5005354;28;20585;-78
2021/04/18 02:23:20;;;;;;;26.50;12.23;;;7.50;99.90;;;;;;4975068;28;20172;-78
2021/04/18 02:25:47;;;;;;;23.30;12.03;;;7.40;99.90;;;;;;4974626;28;20215;-78
2021/04/18 02:28:13;;;;;;;25.13;12.67;;;7.30;99.90;;;;;;4973389;28;20289;-78
2021/04/18 02:30:39;;;;;;;25.00;12.53;;;7.30;99.90;;;;;;4990076;28;20267;-78
2021/04/18 02:33:05;;;;;;;24.33;13.73;;;7.30;99.90;;;;;;4973949;28;20187;-79
2021/04/18 02:35:30;;;;;;;29.60;15.00;;;7.20;99.90;;;;;;4974453;28;20212;-79
2021/04/18 02:37:57;;;;;;;29.17;14.10;;;7.30;99.90;;;;;;5005783;28;20186;-79
2021/04/18 02:40:23;;;;;;;21.77;13.10;;;7.30;99.90;;;;;;4989841;28;20188;-79
2021/04/18 02:42:49;;;;;;;26.20;13.03;;;7.30;99.90;;;;;;5003217;28;20187;-78
2021/04/18 02:45:17;;;;;;;28.17;13.50;;;7.30;99.90;;;;;;4973170;28;20175;-79
2021/04/18 02:47:48;;;;;;;23.53;11.93;;;7.20;99.90;;;;;;4975165;28;20207;-78
2021/04/18 02:50:15;;;;;;;26.20;11.87;;;7.20;99.90;;;;;;5004326;28;20182;-79
2021/04/18 02:52:41;;;;;;;21.90;12.03;;;7.10;99.90;;;;;;4975826;28;20176;-78
2021/04/18 02:55:08;;;;;;;26.23;13.57;;;7.00;99.90;;;;;;4973742;28;20669;-79
2021/04/18 02:57:40;;;;;;;31.73;13.93;;;7.00;99.90;;;;;;4971335;28;20296;-79
2021/04/18 03:00:06;;;;;;;23.53;13.43;;;7.00;99.90;;;;;;4974440;28;20275;-78
2021/04/18 03:02:35;;;;;;;28.87;14.00;;;7.00;99.90;;;;;;4975200;28;20308;-78
2021/04/18 03:05:01;;;;;;;28.93;13.23;;;7.10;99.90;;;;;;4974617;28;20239;-78
2021/04/18 03:07:27;;;;;;;27.83;13.47;;;7.30;99.90;;;;;;5006153;28;20203;-78
2021/04/18 03:09:55;;;;;;;25.17;12.50;;;7.30;99.90;;;;;;4990749;28;20211;-78
2021/04/18 03:12:21;;;;;;;24.53;12.50;;;7.20;99.90;;;;;;4973129;28;20666;-78
2021/04/18 03:14:51;;;;;;;20.97;11.90;;;7.10;99.90;;;;;;5005763;28;20171;-77
2021/04/18 03:17:19;;;;;;;24.30;11.90;;;7.00;99.90;;;;;;4972276;28;20221;-78
2021/04/18 03:19:52;;;;;;;26.07;12.27;;;7.00;99.90;;;;;;4987075;28;20643;-79
2021/04/18 03:22:19;;;;;;;24.37;12.00;;;6.90;99.90;;;;;;4989331;28;21222;-78
2021/04/18 03:24:44;;;;;;;23.53;12.63;;;6.80;99.90;;;;;;4988055;28;20307;-78
2021/04/18 03:27:13;;;;;;;21.77;12.40;;;6.80;99.90;;;;;;4980599;28;20207;-78
2021/04/18 03:29:45;;;;;;;29.63;14.07;;;6.70;99.90;;;;;;4972998;28;20223;-78
2021/04/18 03:32:11;;;;;;;22.63;13.00;;;6.70;99.90;;;;;;4990475;28;22247;-78
2021/04/18 03:34:38;;;;;;;25.80;12.33;;;6.70;99.90;;;;;;5004549;28;20286;-78
2021/04/18 03:37:04;;;;;;;26.37;13.07;;;6.60;99.90;;;;;;5005729;28;20199;-78
2021/04/18 03:39:33;;;;;;;24.43;12.90;;;6.60;99.90;;;;;;4972802;28;20286;-78
2021/04/18 03:41:59;;;;;;;24.77;14.77;;;6.50;99.90;;;;;;4988632;28;20607;-78
2021/04/18 03:44:26;;;;;;;23.60;13.57;;;6.50;99.90;;;;;;4971861;28;20186;-78
2021/04/18 03:46:52;;;;;;;30.10;15.17;;;6.50;99.90;;;;;;5004802;28;20329;-78
2021/04/18 03:49:30;;;;;;;28.93;14.23;;;6.50;99.90;;;;;;4978175;28;20285;-78
2021/04/18 03:52:09;;;;;;;27.33;14.93;;;6.60;99.90;;;;;;5002049;28;20652;-78
2021/04/18 03:54:35;;;;;;;21.03;13.60;;;6.40;99.90;;;;;;5004002;28;20181;-78
2021/04/18 03:57:02;;;;;;;23.57;14.90;;;6.30;99.90;;;;;;4971490;28;20226;-78
2021/04/18 03:59:30;;;;;;;29.27;15.33;;;6.20;99.90;;;;;;4969950;28;20547;-79
2021/04/18 04:01:55;;;;;;;25.50;14.60;;;6.10;99.90;;;;;;4972641;28;20211;-78
2021/04/18 04:04:22;;;;;;;25.37;14.80;;;6.00;99.90;;;;;;4987190;28;20381;-78
2021/04/18 04:06:49;;;;;;;26.53;14.63;;;6.00;99.90;;;;;;4976187;28;20243;-78
2021/04/18 04:09:17;;;;;;;25.57;15.00;;;6.00;99.90;;;;;;5003455;28;20185;-79
2021/04/18 04:11:43;;;;;;;27.70;14.60;;;6.00;99.90;;;;;;4973998;28;20181;-78
2021/04/18 04:14:16;;;;;;;26.47;15.67;;;5.90;99.90;;;;;;4972234;28;20175;-78
2021/04/18 04:16:47;;;;;;;29.47;15.27;;;5.90;99.90;;;;;;5003379;28;20714;-78
2021/04/18 04:19:14;;;;;;;28.53;16.03;;;5.90;99.90;;;;;;4973686;28;20183;-78
2021/04/18 04:21:59;;;;;;;26.83;15.53;;;5.90;99.90;;;;;;4973211;28;20219;-78
2021/04/18 04:24:43;;;;;;;28.90;16.43;;;6.00;99.90;;;;;;4972202;28;20243;-78
2021/04/18 04:27:08;;;;;;;26.57;16.57;;;6.00;99.90;;;;;;4971696;28;20212;-78
2021/04/18 04:29:34;;;;;;;30.60;17.40;;;5.90;99.90;;;;;;4973517;28;20173;-78
2021/04/18 04:32:00;;;;;;;36.70;18.50;;;5.80;99.90;;;;;;4955848;28;20595;-78
2021/04/18 04:34:25;;;;;;;31.23;18.60;;;5.80;99.90;;;;;;4973036;28;20223;-78
2021/04/18 04:36:51;;;;;;;31.10;18.83;;;5.70;99.90;;;;;;4973640;28;20175;-78
2021/04/18 04:39:17;;;;;;;33.17;18.30;;;5.60;99.90;;;;;;4971595;28;20198;-78
2021/04/18 04:41:42;;;;;;;32.50;18.77;;;5.60;99.90;;;;;;4972871;28;20190;-78
2021/04/18 04:44:15;;;;;;;34.13;19.90;;;5.70;99.90;;;;;;5003151;28;20214;-78
2021/04/18 04:46:42;;;;;;;38.77;20.47;;;5.60;99.90;;;;;;4971647;28;20197;-78
2021/04/18 04:49:08;;;;;;;36.93;20.17;;;5.60;99.90;;;;;;4987968;28;20258;-78
2021/04/18 04:51:33;;;;;;;33.70;20.03;;;5.60;99.90;;;;;;4971918;28;20701;-78
2021/04/18 04:53:59;;;;;;;38.80;20.13;;;5.60;99.90;;;;;;4972760;28;20175;-78
2021/04/18 04:56:24;;;;;;;35.70;20.03;;;5.70;99.90;;;;;;4973087;28;20544;-78
2021/04/18 04:58:50;;;;;;;32.30;19.80;;;5.70;99.90;;;;;;4972236;28;20188;-78
2021/04/18 05:01:16;;;;;;;30.73;19.33;;;5.70;99.90;;;;;;4971897;28;20187;-78
2021/04/18 05:03:41;;;;;;;32.77;18.43;;;5.70;99.90;;;;;;4973036;28;20190;-78
2021/04/18 05:06:07;;;;;;;31.67;18.80;;;5.80;99.90;;;;;;4972528;28;20185;-78
2021/04/18 05:08:33;;;;;;;33.97;18.67;;;5.80;99.90;;;;;;4972491;28;20223;-78
2021/04/18 05:10:58;;;;;;;33.10;18.90;;;5.70;99.90;;;;;;4987540;28;20272;-78
2021/04/18 05:13:24;;;;;;;31.60;18.53;;;5.60;99.90;;;;;;4971925;28;20316;-78
2021/04/18 05:15:49;;;;;;;31.40;17.60;;;5.70;99.90;;;;;;4972683;28;20191;-79
2021/04/18 05:18:15;;;;;;;31.10;19.00;;;5.80;99.90;;;;;;4974230;28;20175;-78
2021/04/18 05:20:41;;;;;;;34.93;18.67;;;5.90;99.90;;;;;;4972362;28;20211;-78
2021/04/18 05:23:06;;;;;;;32.03;19.13;;;5.90;99.90;;;;;;4972695;28;20183;-78
2021/04/18 05:25:32;;;;;;;31.47;19.37;;;6.00;99.90;;;;;;4972808;28;20179;-78
2021/04/18 05:27:58;;;;;;;31.93;19.27;;;6.10;99.90;;;;;;4970374;28;20295;-78
2021/04/18 05:30:24;;;;;;;31.87;19.03;;;6.00;99.90;;;;;;4972752;28;20176;-78
2021/04/18 05:32:50;;;;;;;33.40;19.13;;;6.20;99.90;;;;;;4984971;28;20190;-77
2021/04/18 05:35:15;;;;;;;29.00;18.60;;;6.50;99.90;;;;;;4971949;28;20257;-78
2021/04/18 05:37:41;;;;;;;31.63;16.83;;;6.90;99.90;;;;;;4972986;28;20189;-78
2021/04/18 05:40:08;;;;;;;26.60;15.47;;;7.40;99.90;;;;;;4971081;28;20183;-78
2021/04/18 05:42:33;;;;;;;27.33;14.40;;;7.90;99.90;;;;;;4971699;28;20197;-78
2021/04/18 05:44:59;;;;;;;25.47;13.27;;;8.40;99.90;;;;;;4972400;28;20246;-78
2021/04/18 05:47:25;;;;;;;20.37;12.00;;;8.70;99.90;;;;;;4971265;28;20211;-78
2021/04/18 05:49:50;;;;;;;24.57;12.33;;;9.10;99.90;;;;;;4971363;28;20184;-78
2021/04/18 05:52:16;;;;;;;24.17;11.60;;;9.40;99.90;;;;;;4970573;28;20268;-78
2021/04/18 05:54:42;;;;;;;22.70;11.40;;;9.40;99.90;;;;;;4972551;28;20582;-79
2021/04/18 05:57:08;;;;;;;19.77;10.50;;;9.60;99.90;;;;;;4971882;28;20271;-79
2021/04/18 05:59:34;;;;;;;20.13;10.40;;;9.80;99.90;;;;;;4971206;28;20197;-79
2021/04/18 06:01:59;;;;;;;19.73;10.50;;;9.90;99.90;;;;;;4972561;28;20192;-78
2021/04/18 06:04:25;;;;;;;21.90;10.60;;;10.10;99.90;;;;;;4974426;28;20213;-79
2021/04/18 06:06:51;;;;;;;19.63;9.47;;;10.20;99.90;;;;;;4976108;28;20226;-79
2021/04/18 06:09:17;;;;;;;21.60;10.17;;;10.40;99.90;;;;;;4976087;28;20175;-78
2021/04/18 06:11:42;;;;;;;18.70;10.07;;;10.60;99.90;;;;;;4975369;28;20261;-79
2021/04/18 06:14:08;;;;;;;22.57;10.13;;;11.20;99.90;;;;;;5006136;28;20187;-76
2021/04/18 06:16:33;;;;;;;18.27;9.80;;;11.70;99.90;;;;;;4974129;28;20527;-76
2021/04/18 06:18:59;;;;;;;21.53;9.87;;;12.30;99.90;;;;;;4974702;28;20174;-76
2021/04/18 06:21:25;;;;;;;16.67;8.57;;;12.80;99.90;;;;;;4973482;28;20534;-76
2021/04/18 06:23:51;;;;;;;20.33;9.50;;;13.50;99.90;;;;;;4975138;28;20268;-77
2021/04/18 06:26:17;;;;;;;19.27;8.87;;;14.00;99.90;;;;;;4975882;28;20218;-77
2021/04/18 06:28:42;;;;;;;17.47;9.13;;;14.40;99.90;;;;;;4972773;28;20222;-76
2021/04/18 06:31:08;;;;;;;17.33;9.20;;;14.90;99.90;;;;;;5006635;28;20184;-77
2021/04/18 06:33:34;;;;;;;21.43;10.30;;;15.30;99.90;;;;;;4988410;28;20686;-77
2021/04/18 06:35:59;;;;;;;20.33;10.03;;;15.40;99.90;;;;;;4975220;28;20195;-78
2021/04/18 06:38:25;;;;;;;18.20;9.97;;;15.90;99.90;;;;;;4974789;28;20288;-77
2021/04/18 06:40:52;;;;;;;21.60;9.87;;;16.40;99.90;;;;;;4973928;28;20228;-77
2021/04/18 06:43:21;;;;;;;17.60;9.83;;;17.00;99.90;;;;;;4970366;28;20183;-76
2021/04/18 06:45:52;;;;;;;19.90;9.83;;;17.60;99.90;;;;;;4969428;28;20237;-76
2021/04/18 06:48:19;;;;;;;17.33;10.00;;;18.20;99.90;;;;;;4974180;28;20305;-76
2021/04/18 06:50:46;;;;;;;16.50;9.77;;;19.00;99.90;;;;;;4971971;28;20199;-76
2021/04/18 06:53:12;;;;;;;18.60;10.40;;;19.60;98.60;;;;;;4972295;28;20528;-76
2021/04/18 06:55:38;;;;;;;20.13;10.50;;;20.10;96.40;;;;;;4988595;28;20381;-77
2021/04/18 06:58:04;;;;;;;19.03;10.00;;;20.80;94.60;;;;;;4972919;28;20929;-76
2021/04/18 07:00:30;;;;;;;16.90;10.23;;;21.30;93.00;;;;;;4972176;28;20564;-76
2021/04/18 07:03:10;;;;;;;17.87;10.00;;;21.70;91.60;;;;;;5005305;28;20185;-77
2021/04/18 07:05:43;;;;;;;15.37;9.40;;;22.40;89.20;;;;;;4973682;28;20319;-77
2021/04/18 07:08:26;;;;;;;18.07;9.63;;;23.00;86.70;;;;;;5005037;28;20709;-77
2021/04/18 07:11:10;;;;;;;16.80;9.77;;;24.00;80.60;;;;;;4973245;28;20657;-77
2021/04/18 07:13:36;;;;;;;17.87;9.97;;;24.50;77.10;;;;;;5005312;28;20186;-77
2021/04/18 07:16:02;;;;;;;19.53;10.80;;;24.40;75.40;;;;;;4971451;28;20258;-77
2021/04/18 07:18:39;;;;;;;20.43;10.70;;;24.40;75.30;;;;;;4958186;28;20705;-77
2021/04/18 07:21:06;;;;;;;25.47;11.47;;;24.40;74.50;;;;;;4975076;28;20195;-77
2021/04/18 07:23:36;;;;;;;20.47;10.97;;;24.30;72.60;;;;;;4974480;28;20182;-77
2021/04/18 07:26:18;;;;;;;21.27;11.57;;;24.00;73.00;;;;;;4973640;28;20207;-77
2021/04/18 07:28:45;;;;;;;20.70;11.13;;;23.80;73.50;;;;;;4972847;28;20218;-76
2021/04/18 07:31:10;;;;;;;19.33;10.70;;;22.90;76.80;;;;;;4974140;28;20190;-77
2021/04/18 07:34:01;;;;;;;21.93;10.93;;;23.40;74.80;;;;;;4973048;28;20789;-76
2021/04/18 07:36:27;;;;;;;21.73;10.93;;;24.20;72.30;;;;;;4973846;28;20263;-76
2021/04/18 07:38:52;;;;;;;23.83;10.87;;;24.40;71.80;;;;;;4973957;28;20186;-78
2021/04/18 07:41:20;;;;;;;23.70;11.07;;;23.60;73.00;;;;;;4988062;28;20649;-76
2021/04/18 07:43:47;;;;;;;21.90;11.47;;;24.40;72.70;;;;;;4971362;28;20195;-76
2021/04/18 07:46:13;;;;;;;21.03;10.70;;;24.60;69.70;;;;;;4972971;28;20187;-77
2021/04/18 07:48:39;;;;;;;20.60;10.93;;;23.90;72.10;;;;;;4974624;28;20209;-77
2021/04/18 07:51:05;;;;;;;22.50;10.70;;;24.00;73.20;;;;;;4969059;28;20195;-76
2021/04/18 07:53:31;;;;;;;17.07;9.07;;;23.70;70.60;;;;;;5003539;28;20217;-76
2021/04/18 07:55:57;;;;;;;20.33;8.93;;;23.60;70.60;;;;;;4974742;28;20644;-76
2021/04/18 07:58:23;;;;;;;17.50;7.83;;;24.00;68.30;;;;;;4985142;28;20206;-76
2021/04/18 08:00:49;;;;;;;15.87;6.90;;;23.40;71.00;;;;;;5002488;28;20182;-76
2021/04/18 08:03:16;;;;;;;16.27;7.40;;;24.90;67.20;;;;;;5002342;28;20577;-76
2021/04/18 08:05:44;;;;;;;15.70;7.37;;;25.00;64.20;;;;;;4971433;28;20183;-76
2021/04/18 08:08:15;;;;;;;15.03;7.00;;;25.10;64.50;;;;;;5003720;28;20293;-75
2021/04/18 08:10:46;;;;;;;17.57;6.93;;;26.20;60.00;;;;;;4972345;28;20551;-78
2021/04/18 08:13:20;;;;;;;15.67;6.20;;;26.10;58.80;;;;;;5002834;28;20182;-78
2021/04/18 08:15:46;;;;;;;13.60;6.03;;;25.20;59.40;;;;;;4985133;28;20533;-78
2021/04/18 08:18:14;;;;;;;14.57;7.10;;;25.20;59.10;;;;;;4973058;28;20193;-78
2021/04/18 08:20:44;;;;;;;14.33;6.33;;;25.60;58.90;;;;;;4972555;28;20195;-76
2021/04/18 08:23:13;;;;;;;13.07;6.63;;;27.20;55.90;;;;;;4974338;28;20264;-76
2021/04/18 08:26:05;;;;;;;14.87;7.30;;;28.00;53.40;;;;;;4971031;28;20697;-75
2021/04/18 08:28:32;;;;;;;12.85;6.82;;;28.30;53.00;;;;;;4999180;28;20290;-75
2021/04/18 08:31:07;;;;;;;15.00;7.93;;;27.10;53.70;;;;;;4974520;28;20191;-76
2021/04/18 08:33:39;;;;;;;17.13;8.47;;;25.50;54.80;;;;;;5003439;28;20238;-76
2021/04/18 08:36:26;;;;;;;16.10;8.40;;;24.40;57.00;;;;;;4974883;28;20300;-76
2021/04/18 08:39:01;;;;;;;19.03;8.60;;;23.20;60.50;;;;;;4971430;28;20882;-77
2021/04/18 08:41:43;;;;;;;15.10;8.10;;;24.90;59.50;;;;;;4972177;28;20273;-77
2021/04/18 08:44:31;;;;;;;16.13;8.17;;;24.20;59.60;;;;;;5002835;28;20622;-78
2021/04/18 08:47:16;;;;;;;17.40;8.70;;;25.60;57.80;;;;;;4971228;28;20273;-77
2021/04/18 08:49:51;;;;;;;15.97;8.63;;;25.40;57.40;;;;;;4999596;28;20179;-77
2021/04/18 08:52:21;;;;;;;14.93;7.97;;;26.70;56.10;;;;;;5002390;28;20642;-77
2021/04/18 08:54:48;;;;;;;15.32;8.60;;;27.60;54.20;;;;;;4972134;28;20207;-77
2021/04/18 08:57:22;;;;;;;16.13;8.60;;;27.50;53.80;;;;;;4967226;28;20195;-77
2021/04/18 08:59:55;;;;;;;20.20;8.50;;;26.80;54.80;;;;;;5000962;28;20656;-77
2021/04/18 09:02:22;;;;;;;17.70;8.50;;;26.00;55.50;;;;;;4970173;28;20199;-77
2021/04/18 09:04:51;;;;;;;16.07;7.93;;;26.50;55.00;;;;;;4970426;28;20187;-77
2021/04/18 09:07:19;;;;;;;18.42;8.02;;;27.20;53.50;;;;;;4972686;28;20210;-77
2021/04/18 09:09:46;;;;;;;16.20;7.70;;;26.80;53.80;;;;;;4970679;28;20658;-77
2021/04/18 09:12:13;;;;;;;15.98;7.15;;;26.00;53.20;;;;;;4970855;28;20175;-76
2021/04/18 09:14:50;;;;;;;13.87;6.90;;;26.10;52.00;;;;;;4970800;28;20191;-77
2021/04/18 09:17:27;;;;;;;14.70;7.33;;;27.00;53.20;;;;;;4971260;28;20689;-77
2021/04/18 09:19:57;;;;;;;12.43;7.27;;;27.20;52.20;;;;;;4970627;28;20194;-78
2021/04/18 09:22:30;;;;;;;15.48;8.07;;;28.30;50.40;;;;;;4970863;28;20261;-78
2021/04/18 09:25:06;;;;;;;14.25;7.93;;;28.20;48.40;;;;;;4999886;28;20653;-77
2021/04/18 09:27:38;;;;;;;13.98;7.78;;;28.00;48.80;;;;;;5001730;28;20849;-77
2021/04/18 09:30:06;;;;;;;14.65;7.50;;;28.00;48.30;;;;;;5002313;28;20266;-75
2021/04/18 09:32:37;;;;;;;13.95;6.97;;;29.60;46.60;;;;;;4970540;28;20297;-75
2021/04/18 09:35:05;;;;;;;15.82;7.50;;;28.80;45.80;;;;;;4981531;28;20230;-76
2021/04/18 09:37:32;;;;;;;15.57;7.68;;;28.10;47.60;;;;;;4970144;28;20638;-76
2021/04/18 09:40:04;;;;;;;15.63;6.90;;;27.40;48.80;;;;;;4973640;28;20557;-76
2021/04/18 09:42:33;;;;;;;14.48;7.95;;;28.90;47.00;;;;;;5004506;28;20207;-75
2021/04/18 09:45:07;;;;;;;15.00;7.50;;;29.00;48.00;;;;;;4990034;28;20282;-76
2021/04/18 09:47:33;;;;;;;14.55;7.95;;;29.60;46.40;;;;;;4989643;28;20199;-76
2021/04/18 09:50:01;;;;;;;14.10;7.38;;;29.10;45.80;;;;;;4973280;28;20178;-76
2021/04/18 09:52:47;;;;;;;14.52;8.40;;;27.70;47.80;;;;;;4987044;28;20283;-76
2021/04/18 09:55:25;;;;;;;16.38;8.85;;;26.80;47.90;;;;;;4973185;28;20257;-76
2021/04/18 09:57:54;;;;;;;18.30;8.23;;;25.80;49.20;;;;;;4973260;28;20214;-76
2021/04/18 10:00:29;;;;;;;14.65;7.65;;;26.40;51.30;;;;;;4977558;28;20191;-76
2021/04/18 10:03:13;;;;;;;16.30;8.57;;;27.50;48.20;;;;;;4971137;28;20210;-76
2021/04/18 10:05:59;;;;;;;14.82;7.85;;;26.70;48.30;;;;;;5005811;28;20265;-76
2021/04/18 10:08:28;;;;;;;15.73;7.80;;;27.00;49.10;;;;;;4971878;28;20223;-76
2021/04/18 10:10:56;;;;;;;13.50;8.10;;;26.80;47.80;;;;;;5004857;28;20199;-76
2021/04/18 10:13:42;;;;;;;13.83;7.70;;;25.90;49.30;;;;;;4969793;28;20207;-76
2021/04/18 10:16:12;;;;;;;14.77;7.50;;;25.80;49.40;;;;;;4973884;28;20202;-76
2021/04/18 10:19:02;;;;;;;13.65;6.97;;;26.80;50.10;;;;;;5007300;28;20233;-77
2021/04/18 10:21:28;;;;;;;16.07;7.80;;;28.40;46.70;;;;;;4973722;28;20198;-76
2021/04/18 10:23:54;;;;;;;15.45;7.10;;;27.90;47.20;;;;;;4974234;28;20183;-77
2021/04/18 10:26:21;;;;;;;16.77;7.70;;;28.50;46.60;;;;;;4972722;28;20669;-76
2021/04/18 10:28:52;;;;;;;15.43;7.63;;;28.70;46.00;;;;;;5004001;28;20231;-77
2021/04/18 10:31:20;;;;;;;14.38;6.50;;;29.60;46.10;;;;;;4965678;28;20195;-77
2021/04/18 10:33:47;;;;;;;14.57;6.93;;;28.50;45.60;;;;;;5001610;28;20269;-76
2021/04/18 10:36:13;;;;;;;14.20;7.50;;;27.90;45.70;;;;;;4973913;28;20680;-77
2021/04/18 10:38:40;;;;;;;13.80;6.70;;;27.90;47.70;;;;;;5002859;28;20253;-76
2021/04/18 10:41:07;;;;;;;13.27;6.72;;;26.80;46.90;;;;;;4972531;28;20179;-76
2021/04/18 10:43:34;;;;;;;14.07;5.47;;;26.40;48.10;;;;;;4971210;28;20241;-77
2021/04/18 10:46:00;;;;;;;16.40;6.68;;;27.10;47.50;;;;;;4972504;28;20203;-76
2021/04/18 10:48:25;;;;;;;12.73;6.97;;;28.20;46.10;;;;;;4971531;28;20226;-76
2021/04/18 10:50:51;;;;;;;16.60;7.53;;;28.70;44.50;;;;;;5001156;28;20661;-76
2021/04/18 10:53:19;;;;;;;14.60;7.30;;;26.60;45.60;;;;;;4972266;28;20198;-77
2021/04/18 10:55:45;;;;;;;15.15;7.65;;;26.60;46.00;;;;;;4969965;28;20195;-77
2021/04/18 10:58:14;;;;;;;14.00;7.03;;;27.10;46.80;;;;;;4972227;28;20183;-77
2021/04/18 11:00:39;;;;;;;15.18;6.95;;;27.90;46.10;;;;;;4969878;28;20195;-75
2021/04/18 11:03:05;;;;;;;13.65;7.35;;;28.20;46.20;;;;;;4984913;28;20678;-77
2021/04/18 11:05:31;;;;;;;17.63;6.88;;;28.80;46.00;;;;;;4986840;28;20549;-76
2021/04/18 11:07:56;;;;;;;13.93;7.10;;;27.30;47.30;;;;;;4972104;28;20215;-75
2021/04/18 11:10:22;;;;;;;14.75;7.28;;;26.60;47.90;;;;;;4974572;28;20214;-75
2021/04/18 11:12:48;;;;;;;15.98;7.68;;;25.90;48.20;;;;;;4972859;28;20722;-76
2021/04/18 11:15:14;;;;;;;14.18;7.70;;;25.20;48.60;;;;;;4972670;28;20180;-76
2021/04/18 11:17:40;;;;;;;17.63;7.97;;;23.60;51.40;;;;;;4971811;28;20563;-75
2021/04/18 11:20:11;;;;;;;18.33;8.23;;;22.80;53.50;;;;;;4973466;28;20202;-76
2021/04/18 11:22:38;;;;;;;15.07;7.63;;;23.40;52.50;;;;;;5001062;28;20221;-76
2021/04/18 11:25:09;;;;;;;16.20;7.93;;;22.90;52.70;;;;;;4973428;28;20196;-76
2021/04/18 11:27:35;;;;;;;17.50;8.37;;;21.90;53.80;;;;;;4965815;28;20233;-75
2021/04/18 11:30:07;;;;;;;17.30;8.23;;;22.50;53.30;;;;;;4966930;28;20210;-76
2021/04/18 11:32:32;;;;;;;14.87;7.37;;;23.40;52.30;;;;;;4969986;28;20190;-76
2021/04/18 11:34:58;;;;;;;16.80;8.07;;;24.30;51.50;;;;;;4981980;28;20230;-76
2021/04/18 11:37:24;;;;;;;14.97;7.83;;;24.60;51.60;;;;;;4973604;28;20179;-76
2021/04/18 11:39:49;;;;;;;15.63;8.07;;;25.10;51.10;;;;;;4969685;28;20199;-76
2021/04/18 11:42:15;;;;;;;14.50;7.37;;;24.30;50.60;;;;;;4970062;28;20258;-76
2021/04/18 11:44:41;;;;;;;18.13;7.70;;;23.60;53.30;;;;;;4971522;28;20704;-75
2021/04/18 11:47:06;;;;;;;15.27;7.57;;;25.00;50.60;;;;;;4970265;28;20186;-76
2021/04/18 11:49:32;;;;;;;15.20;7.80;;;25.30;51.50;;;;;;4987013;28;20179;-76
2021/04/18 11:51:58;;;;;;;12.30;7.40;;;24.70;50.30;;;;;;5001900;28;20271;-76
2021/04/18 11:54:24;;;;;;;13.93;7.40;;;25.70;48.20;;;;;;4971583;28;20186;-76
2021/04/18 11:56:49;;;;;;;18.92;8.40;;;26.20;48.80;;;;;;4971073;28;20189;-76
2021/04/18 11:59:15;;;;;;;15.43;8.07;;;26.40;46.50;;;;;;4970425;28;20270;-76
2021/04/18 12:01:41;;;;;;;13.90;7.22;;;26.70;46.70;;;;;;5003167;28;21029;-75
2021/04/18 12:04:06;;;;;;;17.33;7.93;;;26.50;49.60;;;;;;4970817;28;20190;-76
2021/04/18 12:06:32;;;;;;;18.27;8.23;;;27.30;46.80;;;;;;4971634;28;20239;-76
2021/04/18 12:08:57;;;;;;;15.90;8.07;;;27.10;47.30;;;;;;4971239;28;20221;-76
2021/04/18 12:11:23;;;;;;;16.10;8.32;;;26.90;47.70;;;;;;4971246;28;20266;-77
2021/04/18 12:13:49;;;;;;;15.75;8.43;;;26.40;46.60;;;;;;4971355;28;20198;-76
2021/04/18 12:16:15;;;;;;;15.70;8.95;;;26.50;47.50;;;;;;4975353;28;20273;-76
2021/04/18 12:18:44;;;;;;;17.13;8.55;;;26.50;47.80;;;;;;4964753;28;20736;-76
2021/04/18 12:21:10;;;;;;;16.20;7.80;;;27.00;48.00;;;;;;4995387;28;20223;-76
2021/04/18 12:23:37;;;;;;;15.75;8.32;;;27.00;47.50;;;;;;4970251;28;20227;-76
2021/04/18 12:26:03;;;;;;;18.77;8.23;;;25.60;48.50;;;;;;4963962;28;20191;-76
2021/04/18 12:28:29;;;;;;;15.00;8.23;;;24.30;49.50;;;;;;4963688;28;20214;-77
2021/04/18 12:30:55;;;;;;;15.00;8.13;;;23.10;50.50;;;;;;5001508;28;20716;-76
2021/04/18 12:33:22;;;;;;;14.67;8.80;;;22.50;51.90;;;;;;4967867;28;20214;-76
2021/04/18 12:35:47;;;;;;;16.63;8.33;;;21.90;54.60;;;;;;4971311;28;20198;-77
2021/04/18 12:38:13;;;;;;;18.13;8.57;;;21.80;54.80;;;;;;4965275;28;20190;-76
2021/04/18 12:40:40;;;;;;;16.60;8.90;;;21.70;54.90;;;;;;4960563;28;20706;-76
2021/04/18 12:43:05;;;;;;;16.93;8.40;;;21.50;54.80;;;;;;4965834;28;20253;-76